sensor_id;sensor_type;location;lat;lon;timestamp;pressure;altitude;pressure_sealevel;temperature;humidity
71857;BME280;63344;46.980;28.882;2023-01-05T00:01:54;101183.56;;;-1.26;83.41
71857;BME280;63344;46.980;28.882;2023-01-05T00:04:22;101179.22;;;-1.25;83.76
71857;BME280;63344;46.980;28.882;2023-01-05T00:06:49;101178.38;;;-1.23;84.11
71857;BME280;63344;46.980;28.882;2023-01-05T00:09:17;101181.06;;;-1.18;83.99
71857;BME280;63344;46.980;28.882;2023-01-05T00:11:45;101153.34;;;-1.14;84.11
71857;BME280;63344;46.980;28.882;2023-01-05T00:14:32;101137.66;;;-1.17;83.50
71857;BME280;63344;46.980;28.882;2023-01-05T00:17:20;101129.69;;;-1.27;83.05
71857;BME280;63344;46.980;28.882;2023-01-05T00:20:16;101139.00;;;-1.39;82.59
71857;BME280;63344;46.980;28.882;2023-01-05T00:23:04;101150.22;;;-1.42;82.32
71857;BME280;63344;46.980;28.882;2023-01-05T00:25:35;101145.84;;;-1.45;82.83
71857;BME280;63344;46.980;28.882;2023-01-05T00:28:03;101143.38;;;-1.37;83.96
71857;BME280;63344;46.980;28.882;2023-01-05T00:30:33;101153.09;;;-1.28;85.63
71857;BME280;63344;46.980;28.882;2023-01-05T00:33:02;101143.69;;;-1.22;85.34
71857;BME280;63344;46.980;28.882;2023-01-05T00:35:30;101136.91;;;-1.10;85.01
71857;BME280;63344;46.980;28.882;2023-01-05T00:37:58;101121.22;;;-1.13;85.43
71857;BME280;63344;46.980;28.882;2023-01-05T00:40:26;101117.75;;;-1.12;84.67
71857;BME280;63344;46.980;28.882;2023-01-05T00:42:53;101123.88;;;-1.10;84.69
71857;BME280;63344;46.980;28.882;2023-01-05T00:45:21;101109.13;;;-1.08;84.13
71857;BME280;63344;46.980;28.882;2023-01-05T00:47:49;101100.47;;;-1.07;84.15
71857;BME280;63344;46.980;28.882;2023-01-05T00:50:21;101083.09;;;-1.07;84.48
71857;BME280;63344;46.980;28.882;2023-01-05T00:52:48;101091.94;;;-0.97;83.95
71857;BME280;63344;46.980;28.882;2023-01-05T00:55:16;101073.63;;;-1.00;83.94
71857;BME280;63344;46.980;28.882;2023-01-05T00:57:43;101073.72;;;-0.94;84.04
71857;BME280;63344;46.980;28.882;2023-01-05T01:00:15;101065.06;;;-0.93;84.03
71857;BME280;63344;46.980;28.882;2023-01-05T01:02:43;101071.25;;;-0.88;85.25
71857;BME280;63344;46.980;28.882;2023-01-05T01:05:11;101070.34;;;-0.88;85.32
71857;BME280;63344;46.980;28.882;2023-01-05T01:07:39;101080.88;;;-0.84;86.30
71857;BME280;63344;46.980;28.882;2023-01-05T01:10:07;101073.03;;;-0.82;86.33
71857;BME280;63344;46.980;28.882;2023-01-05T01:12:35;101050.47;;;-0.82;85.96
71857;BME280;63344;46.980;28.882;2023-01-05T01:15:03;101050.66;;;-0.69;85.73
71857;BME280;63344;46.980;28.882;2023-01-05T01:17:31;101056.66;;;-0.75;85.29
71857;BME280;63344;46.980;28.882;2023-01-05T01:19:58;101062.72;;;-0.74;85.30
71857;BME280;63344;46.980;28.882;2023-01-05T01:22:26;101058.44;;;-0.71;85.09
71857;BME280;63344;46.980;28.882;2023-01-05T01:24:53;101054.25;;;-0.58;86.14
71857;BME280;63344;46.980;28.882;2023-01-05T01:27:20;101035.28;;;-0.49;86.17
71857;BME280;63344;46.980;28.882;2023-01-05T01:29:47;101023.06;;;-0.52;84.90
71857;BME280;63344;46.980;28.882;2023-01-05T01:32:14;101016.84;;;-0.60;84.01
71857;BME280;63344;46.980;28.882;2023-01-05T01:34:42;100988.00;;;-0.72;84.12
71857;BME280;63344;46.980;28.882;2023-01-05T01:37:08;100981.00;;;-0.76;84.17
71857;BME280;63344;46.980;28.882;2023-01-05T01:39:35;100970.47;;;-0.86;84.47
71857;BME280;63344;46.980;28.882;2023-01-05T01:42:02;100980.06;;;-0.83;85.93
71857;BME280;63344;46.980;28.882;2023-01-05T01:49:48;100970.56;;;-0.76;87.72
71857;BME280;63344;46.980;28.882;2023-01-05T01:52:16;100960.19;;;-0.73;88.55
71857;BME280;63344;46.980;28.882;2023-01-05T01:54:45;100952.56;;;-0.56;90.12
71857;BME280;63344;46.980;28.882;2023-01-05T01:57:14;100951.81;;;-0.46;89.97
71857;BME280;63344;46.980;28.882;2023-01-05T01:59:41;100941.47;;;-0.38;90.04
71857;BME280;63344;46.980;28.882;2023-01-05T02:02:10;100938.94;;;-0.31;89.57
71857;BME280;63344;46.980;28.882;2023-01-05T02:04:38;100929.38;;;-0.30;89.26
71857;BME280;63344;46.980;28.882;2023-01-05T02:07:06;100932.94;;;-0.22;89.51
71857;BME280;63344;46.980;28.882;2023-01-05T02:09:35;100928.66;;;-0.15;89.89
71857;BME280;63344;46.980;28.882;2023-01-05T02:18:05;100900.84;;;-0.10;88.86
71857;BME280;63344;46.980;28.882;2023-01-05T02:32:25;100877.38;;;-0.10;90.87
71857;BME280;63344;46.980;28.882;2023-01-05T02:35:32;100861.78;;;-0.03;90.96
71857;BME280;63344;46.980;28.882;2023-01-05T02:38:28;100853.97;;;-0.01;90.65
71857;BME280;63344;46.980;28.882;2023-01-05T02:41:06;100841.78;;;0.01;90.23
71857;BME280;63344;46.980;28.882;2023-01-05T02:43:37;100842.69;;;0.03;90.03
71857;BME280;63344;46.980;28.882;2023-01-05T02:46:04;100838.38;;;0.10;89.99
71857;BME280;63344;46.980;28.882;2023-01-05T02:48:34;100829.69;;;0.14;90.07
71857;BME280;63344;46.980;28.882;2023-01-05T02:51:09;100832.44;;;0.31;91.19
71857;BME280;63344;46.980;28.882;2023-01-05T02:53:43;100815.94;;;0.38;92.05
71857;BME280;63344;46.980;28.882;2023-01-05T02:56:24;100816.03;;;0.56;93.13
71857;BME280;63344;46.980;28.882;2023-01-05T03:01:44;100817.03;;;0.83;93.66
71857;BME280;63344;46.980;28.882;2023-01-05T03:04:19;100821.44;;;0.90;93.20
71857;BME280;63344;46.980;28.882;2023-01-05T03:06:48;100831.03;;;0.94;93.27
71857;BME280;63344;46.980;28.882;2023-01-05T03:09:30;100817.06;;;0.97;93.08
71857;BME280;63344;46.980;28.882;2023-01-05T03:12:32;100813.59;;;0.99;93.35
71857;BME280;63344;46.980;28.882;2023-01-05T03:15:29;100809.22;;;0.95;93.19
71857;BME280;63344;46.980;28.882;2023-01-05T03:17:59;100805.75;;;0.95;92.84
71857;BME280;63344;46.980;28.882;2023-01-05T03:20:32;100798.78;;;0.92;92.51
71857;BME280;63344;46.980;28.882;2023-01-05T03:23:02;100801.38;;;0.92;92.49
71857;BME280;63344;46.980;28.882;2023-01-05T03:25:52;100798.78;;;0.92;92.81
71857;BME280;63344;46.980;28.882;2023-01-05T03:28:58;100786.56;;;0.94;92.96
71857;BME280;63344;46.980;28.882;2023-01-05T03:31:51;100779.59;;;0.95;92.65
71857;BME280;63344;46.980;28.882;2023-01-05T03:34:50;100771.78;;;0.98;92.98
71857;BME280;63344;46.980;28.882;2023-01-05T03:37:46;100756.94;;;1.03;93.51
71857;BME280;63344;46.980;28.882;2023-01-05T03:40:31;100742.16;;;1.02;93.12
71857;BME280;63344;46.980;28.882;2023-01-05T03:43:00;100736.91;;;1.02;93.29
71857;BME280;63344;46.980;28.882;2023-01-05T03:45:39;100728.19;;;1.03;92.95
71857;BME280;63344;46.980;28.882;2023-01-05T03:48:08;100712.50;;;0.98;93.07
71857;BME280;63344;46.980;28.882;2023-01-05T03:50:36;100714.22;;;1.01;93.42
71857;BME280;63344;46.980;28.882;2023-01-05T03:53:05;100713.38;;;1.01;94.00
71857;BME280;63344;46.980;28.882;2023-01-05T03:55:33;100711.63;;;1.03;94.46
71857;BME280;63344;46.980;28.882;2023-01-05T03:58:01;100728.19;;;1.06;94.39
71857;BME280;63344;46.980;28.882;2023-01-05T04:00:28;100731.69;;;1.08;94.32
71857;BME280;63344;46.980;28.882;2023-01-05T04:02:55;100715.97;;;1.05;94.69
71857;BME280;63344;46.980;28.882;2023-01-05T04:05:23;100725.59;;;1.11;94.44
71857;BME280;63344;46.980;28.882;2023-01-05T04:07:51;100738.66;;;1.15;94.27
71857;BME280;63344;46.980;28.882;2023-01-05T04:10:18;100726.47;;;1.14;93.95
71857;BME280;63344;46.980;28.882;2023-01-05T04:12:46;100724.72;;;1.16;94.15
71857;BME280;63344;46.980;28.882;2023-01-05T04:15:16;100717.75;;;1.18;94.41
71857;BME280;63344;46.980;28.882;2023-01-05T04:17:43;100707.28;;;1.22;94.71
71857;BME280;63344;46.980;28.882;2023-01-05T04:20:10;100724.72;;;1.27;94.51
71857;BME280;63344;46.980;28.882;2023-01-05T04:22:38;100709.03;;;1.24;94.45
71857;BME280;63344;46.980;28.882;2023-01-05T04:25:06;100702.03;;;1.22;93.62
71857;BME280;63344;46.980;28.882;2023-01-05T04:27:34;100701.19;;;1.21;93.94
71857;BME280;63344;46.980;28.882;2023-01-05T04:30:01;100701.19;;;1.24;93.87
71857;BME280;63344;46.980;28.882;2023-01-05T04:32:31;100705.53;;;1.25;93.74
71857;BME280;63344;46.980;28.882;2023-01-05T04:34:58;100695.06;;;1.24;93.71
71857;BME280;63344;46.980;28.882;2023-01-05T04:37:36;100703.81;;;1.32;93.75
71857;BME280;63344;46.980;28.882;2023-01-05T04:40:04;100688.13;;;1.30;93.67
71857;BME280;63344;46.980;28.882;2023-01-05T04:42:34;100689.84;;;1.37;93.29
71857;BME280;63344;46.980;28.882;2023-01-05T04:45:01;100688.09;;;1.41;93.46
71857;BME280;63344;46.980;28.882;2023-01-05T04:47:29;100689.84;;;1.44;93.06
71857;BME280;63344;46.980;28.882;2023-01-05T04:49:56;100687.25;;;1.42;92.98
71857;BME280;63344;46.980;28.882;2023-01-05T04:52:23;100691.59;;;1.46;92.99
71857;BME280;63344;46.980;28.882;2023-01-05T04:54:51;100682.00;;;1.48;92.87
71857;BME280;63344;46.980;28.882;2023-01-05T04:57:18;100680.25;;;1.56;92.91
71857;BME280;63344;46.980;28.882;2023-01-05T04:59:45;100675.00;;;1.63;93.08
71857;BME280;63344;46.980;28.882;2023-01-05T05:02:13;100669.78;;;1.64;92.85
71857;BME280;63344;46.980;28.882;2023-01-05T05:04:41;100661.03;;;1.59;92.42
71857;BME280;63344;46.980;28.882;2023-01-05T05:07:24;100648.84;;;1.58;92.08
71857;BME280;63344;46.980;28.882;2023-01-05T05:09:55;100646.22;;;1.55;91.79
71857;BME280;63344;46.980;28.882;2023-01-05T05:12:33;100644.50;;;1.54;92.05
71857;BME280;63344;46.980;28.882;2023-01-05T05:15:01;100632.28;;;1.45;91.73
71857;BME280;63344;46.980;28.882;2023-01-05T05:17:28;100624.44;;;1.41;91.70
71857;BME280;63344;46.980;28.882;2023-01-05T05:20:02;100636.66;;;1.45;92.19
71857;BME280;63344;46.980;28.882;2023-01-05T05:22:31;100626.19;;;1.38;91.33
71857;BME280;63344;46.980;28.882;2023-01-05T05:24:59;100634.06;;;1.34;91.57
71857;BME280;63344;46.980;28.882;2023-01-05T05:27:26;100626.19;;;1.28;92.23
71857;BME280;63344;46.980;28.882;2023-01-05T05:29:55;100631.44;;;1.34;92.07
71857;BME280;63344;46.980;28.882;2023-01-05T05:32:23;100614.00;;;1.34;92.42
71857;BME280;63344;46.980;28.882;2023-01-05T05:34:55;100620.94;;;1.42;92.48
71857;BME280;63344;46.980;28.882;2023-01-05T05:37:36;100616.59;;;1.42;92.64
71857;BME280;63344;46.980;28.882;2023-01-05T05:40:11;100613.09;;;1.37;92.54
71857;BME280;63344;46.980;28.882;2023-01-05T05:42:43;100620.06;;;1.41;92.53
71857;BME280;63344;46.980;28.882;2023-01-05T05:45:11;100614.84;;;1.44;92.84
71857;BME280;63344;46.980;28.882;2023-01-05T05:47:38;100602.63;;;1.43;92.44
71857;BME280;63344;46.980;28.882;2023-01-05T05:50:11;100605.25;;;1.46;92.60
71857;BME280;63344;46.980;28.882;2023-01-05T05:52:38;100592.16;;;1.43;92.84
71857;BME280;63344;46.980;28.882;2023-01-05T05:55:06;100583.47;;;1.38;92.89
71857;BME280;63344;46.980;28.882;2023-01-05T05:57:34;100578.22;;;1.36;92.67
71857;BME280;63344;46.980;28.882;2023-01-05T06:00:04;100573.84;;;1.38;92.72
71857;BME280;63344;46.980;28.882;2023-01-05T06:02:32;100577.34;;;1.37;92.68
71857;BME280;63344;46.980;28.882;2023-01-05T06:05:02;100582.56;;;1.37;92.35
71857;BME280;63344;46.980;28.882;2023-01-05T06:07:30;100571.25;;;1.37;92.49
71857;BME280;63344;46.980;28.882;2023-01-05T06:09:58;100566.00;;;1.40;92.37
71857;BME280;63344;46.980;28.882;2023-01-05T06:12:27;100562.50;;;1.41;91.83
71857;BME280;63344;46.980;28.882;2023-01-05T06:14:56;100559.03;;;1.42;91.94
71857;BME280;63344;46.980;28.882;2023-01-05T06:17:23;100544.16;;;1.47;91.68
71857;BME280;63344;46.980;28.882;2023-01-05T06:19:51;100547.63;;;1.55;91.71
71857;BME280;63344;46.980;28.882;2023-01-05T06:22:19;100542.41;;;1.57;91.59
71857;BME280;63344;46.980;28.882;2023-01-05T06:24:53;100545.00;;;1.65;91.47
71857;BME280;63344;46.980;28.882;2023-01-05T06:27:46;100532.78;;;1.70;91.25
71857;BME280;63344;46.980;28.882;2023-01-05T06:30:15;100524.91;;;1.67;90.78
71857;BME280;63344;46.980;28.882;2023-01-05T06:32:43;100522.31;;;1.68;90.36
71857;BME280;63344;46.980;28.882;2023-01-05T06:35:11;100507.44;;;1.66;90.28
71857;BME280;63344;46.980;28.882;2023-01-05T06:37:38;100506.59;;;1.68;90.12
71857;BME280;63344;46.980;28.882;2023-01-05T06:40:06;100506.56;;;1.73;90.14
71857;BME280;63344;46.980;28.882;2023-01-05T06:42:36;100492.59;;;1.75;90.28
71857;BME280;63344;46.980;28.882;2023-01-05T06:45:04;100488.22;;;1.79;90.15
71857;BME280;63344;46.980;28.882;2023-01-05T06:47:32;100498.66;;;1.88;90.35
71857;BME280;63344;46.980;28.882;2023-01-05T06:50:00;100489.91;;;1.89;89.88
71857;BME280;63344;46.980;28.882;2023-01-05T06:52:28;100490.75;;;1.94;89.76
71857;BME280;63344;46.980;28.882;2023-01-05T06:54:55;100488.13;;;1.96;89.56
71857;BME280;63344;46.980;28.882;2023-01-05T06:57:22;100490.72;;;2.02;89.67
71857;BME280;63344;46.980;28.882;2023-01-05T06:59:50;100495.00;;;2.12;89.30
71857;BME280;63344;46.980;28.882;2023-01-05T07:02:18;100493.22;;;2.21;89.06
71857;BME280;63344;46.980;28.882;2023-01-05T07:04:45;100481.81;;;2.23;88.87
71857;BME280;63344;46.980;28.882;2023-01-05T07:07:13;100483.50;;;2.33;88.88
71857;BME280;63344;46.980;28.882;2023-01-05T07:09:42;100480.88;;;2.38;87.92
71857;BME280;63344;46.980;28.882;2023-01-05T07:12:15;100483.50;;;2.36;87.73
71857;BME280;63344;46.980;28.882;2023-01-05T07:14:44;100489.59;;;2.40;87.21
71857;BME280;63344;46.980;28.882;2023-01-05T07:17:11;100485.19;;;2.42;87.17
71857;BME280;63344;46.980;28.882;2023-01-05T07:19:39;100477.34;;;2.39;86.78
71857;BME280;63344;46.980;28.882;2023-01-05T07:22:06;100458.09;;;2.42;86.89
71857;BME280;63344;46.980;28.882;2023-01-05T07:24:34;100453.75;;;2.42;86.59
71857;BME280;63344;46.980;28.882;2023-01-05T07:27:02;100457.97;;;2.57;87.05
71857;BME280;63344;46.980;28.882;2023-01-05T07:29:38;100450.91;;;2.68;86.79
71857;BME280;63344;46.980;28.882;2023-01-05T07:32:06;100437.72;;;2.74;85.99
71857;BME280;63344;46.980;28.882;2023-01-05T07:34:35;100421.06;;;2.78;86.17
71857;BME280;63344;46.980;28.882;2023-01-05T07:37:03;100421.06;;;2.80;86.28
71857;BME280;63344;46.980;28.882;2023-01-05T07:39:31;100417.53;;;2.81;86.06
71857;BME280;63344;46.980;28.882;2023-01-05T07:42:05;100424.50;;;2.85;85.57
71857;BME280;63344;46.980;28.882;2023-01-05T07:44:37;100416.59;;;2.90;84.52
71857;BME280;63344;46.980;28.882;2023-01-05T07:47:07;100443.47;;;3.10;84.85
71857;BME280;63344;46.980;28.882;2023-01-05T07:49:34;100441.53;;;3.26;83.63
71857;BME280;63344;46.980;28.882;2023-01-05T07:52:01;100431.88;;;3.30;83.16
71857;BME280;63344;46.980;28.882;2023-01-05T07:54:29;100415.13;;;3.42;82.88
71857;BME280;63344;46.980;28.882;2023-01-05T07:56:56;100410.44;;;3.64;81.24
71857;BME280;63344;46.980;28.882;2023-01-05T07:59:26;100404.16;;;3.74;80.76
71857;BME280;63344;46.980;28.882;2023-01-05T08:01:53;100415.34;;;3.88;80.83
71857;BME280;63344;46.980;28.882;2023-01-05T08:04:21;100401.22;;;3.95;80.14
71857;BME280;63344;46.980;28.882;2023-01-05T08:06:48;100408.00;;;4.09;79.22
71857;BME280;63344;46.980;28.882;2023-01-05T08:09:16;100401.78;;;4.16;79.72
71857;BME280;63344;46.980;28.882;2023-01-05T08:12:01;100407.78;;;4.23;79.06
71857;BME280;63344;46.980;28.882;2023-01-05T08:14:29;100399.81;;;4.27;78.92
71857;BME280;63344;46.980;28.882;2023-01-05T08:16:56;100405.78;;;4.38;78.69
71857;BME280;63344;46.980;28.882;2023-01-05T08:19:23;100417.09;;;4.44;78.58
71857;BME280;63344;46.980;28.882;2023-01-05T08:21:50;100419.66;;;4.47;78.10
71857;BME280;63344;46.980;28.882;2023-01-05T08:24:18;100415.31;;;4.46;77.91
71857;BME280;63344;46.980;28.882;2023-01-05T08:26:45;100422.28;;;4.48;77.72
71857;BME280;63344;46.980;28.882;2023-01-05T08:29:30;100417.66;;;4.61;76.84
71857;BME280;63344;46.980;28.882;2023-01-05T08:31:58;100415.78;;;4.69;76.29
71857;BME280;63344;46.980;28.882;2023-01-05T08:35:04;100417.25;;;4.84;76.50
71857;BME280;63344;46.980;28.882;2023-01-05T08:37:34;100426.69;;;4.96;75.33
71857;BME280;63344;46.980;28.882;2023-01-05T08:40:05;100415.88;;;5.10;74.16
71857;BME280;63344;46.980;28.882;2023-01-05T08:42:35;100412.16;;;5.20;73.11
71857;BME280;63344;46.980;28.882;2023-01-05T08:45:02;100411.94;;;5.31;73.04
71857;BME280;63344;46.980;28.882;2023-01-05T08:47:32;100388.03;;;5.42;72.32
71857;BME280;63344;46.980;28.882;2023-01-05T08:49:59;100375.44;;;5.54;72.39
71857;BME280;63344;46.980;28.882;2023-01-05T08:52:27;100379.31;;;5.77;71.88
71857;BME280;63344;46.980;28.882;2023-01-05T08:54:54;100358.88;;;5.88;71.16
71857;BME280;63344;46.980;28.882;2023-01-05T08:57:21;100344.53;;;6.02;70.89
71857;BME280;63344;46.980;28.882;2023-01-05T08:59:49;100351.38;;;6.09;71.06
71857;BME280;63344;46.980;28.882;2023-01-05T09:02:43;100360.91;;;6.14;70.56
71857;BME280;63344;46.980;28.882;2023-01-05T09:05:25;100365.31;;;6.14;69.96
71857;BME280;63344;46.980;28.882;2023-01-05T09:07:52;100365.34;;;6.12;69.28
71857;BME280;63344;46.980;28.882;2023-01-05T09:10:19;100368.06;;;6.09;69.49
71857;BME280;63344;46.980;28.882;2023-01-05T09:13:01;100354.94;;;6.08;69.16
71857;BME280;63344;46.980;28.882;2023-01-05T09:15:33;100327.88;;;6.00;68.97
71857;BME280;63344;46.980;28.882;2023-01-05T09:18:00;100328.72;;;6.02;69.04
71857;BME280;63344;46.980;28.882;2023-01-05T09:20:35;100329.75;;;5.93;69.68
71857;BME280;63344;46.980;28.882;2023-01-05T09:23:13;100314.00;;;5.91;70.50
71857;BME280;63344;46.980;28.882;2023-01-05T09:25:56;100302.84;;;5.80;71.10
71857;BME280;63344;46.980;28.882;2023-01-05T09:28:23;100295.91;;;5.76;72.19
71857;BME280;63344;46.980;28.882;2023-01-05T09:30:51;100288.41;;;5.59;73.31
71857;BME280;63344;46.980;28.882;2023-01-05T09:33:18;100273.72;;;5.49;74.40
71857;BME280;63344;46.980;28.882;2023-01-05T09:35:56;100252.97;;;5.35;75.06
71857;BME280;63344;46.980;28.882;2023-01-05T09:38:23;100245.19;;;5.30;75.75
71857;BME280;63344;46.980;28.882;2023-01-05T09:40:54;100246.84;;;5.34;76.11
71857;BME280;63344;46.980;28.882;2023-01-05T09:43:30;100238.16;;;5.31;76.41
71857;BME280;63344;46.980;28.882;2023-01-05T09:46:21;100236.41;;;5.31;76.67
71857;BME280;63344;46.980;28.882;2023-01-05T09:49:05;100227.75;;;5.26;76.96
71857;BME280;63344;46.980;28.882;2023-01-05T09:52:01;100202.19;;;5.31;77.71
71857;BME280;63344;46.980;28.882;2023-01-05T09:54:45;100209.25;;;5.29;77.95
71857;BME280;63344;46.980;28.882;2023-01-05T09:57:47;100219.66;;;5.34;78.28
71857;BME280;63344;46.980;28.882;2023-01-05T10:00:25;100222.13;;;5.42;77.98
71857;BME280;63344;46.980;28.882;2023-01-05T10:03:17;100215.84;;;5.47;77.80
71857;BME280;63344;46.980;28.882;2023-01-05T10:06:59;100205.84;;;5.62;77.77
71857;BME280;63344;46.980;28.882;2023-01-05T10:09:44;100206.50;;;5.70;77.43
71857;BME280;63344;46.980;28.882;2023-01-05T10:12:20;100201.09;;;5.74;77.68
71857;BME280;63344;46.980;28.882;2023-01-05T10:15:17;100191.19;;;5.84;76.82
71857;BME280;63344;46.980;28.882;2023-01-05T10:17:45;100191.03;;;5.90;76.82
71857;BME280;63344;46.980;28.882;2023-01-05T10:20:24;100187.38;;;5.97;76.57
71857;BME280;63344;46.980;28.882;2023-01-05T10:26:22;100144.22;;;6.00;76.64
71857;BME280;63344;46.980;28.882;2023-01-05T10:29:09;100138.09;;;6.00;76.75
71857;BME280;63344;46.980;28.882;2023-01-05T10:31:55;100144.19;;;6.02;76.69
71857;BME280;63344;46.980;28.882;2023-01-05T10:34:34;100151.09;;;6.06;76.94
71857;BME280;63344;46.980;28.882;2023-01-05T10:45:35;100126.88;;;6.23;74.20
71857;BME280;63344;46.980;28.882;2023-01-05T10:48:29;100117.03;;;6.29;73.97
71857;BME280;63344;46.980;28.882;2023-01-05T10:50:57;100121.25;;;6.35;73.72
71857;BME280;63344;46.980;28.882;2023-01-05T10:53:28;100134.19;;;6.44;73.93
71857;BME280;63344;46.980;28.882;2023-01-05T10:56:00;100138.19;;;6.57;73.50
71857;BME280;63344;46.980;28.882;2023-01-05T10:58:32;100122.34;;;6.57;72.50
71857;BME280;63344;46.980;28.882;2023-01-05T11:01:03;100134.31;;;6.69;72.19
71857;BME280;63344;46.980;28.882;2023-01-05T11:03:42;100113.94;;;6.73;71.91
71857;BME280;63344;46.980;28.882;2023-01-05T11:06:32;100123.53;;;6.77;71.33
71857;BME280;63344;46.980;28.882;2023-01-05T11:12:00;100113.72;;;6.81;71.15
71857;BME280;63344;46.980;28.882;2023-01-05T11:14:32;100110.00;;;6.86;70.93
71857;BME280;63344;46.980;28.882;2023-01-05T11:17:05;100110.88;;;6.87;70.72
71857;BME280;63344;46.980;28.882;2023-01-05T11:19:40;100105.56;;;6.88;70.54
71857;BME280;63344;46.980;28.882;2023-01-05T11:22:37;100097.56;;;6.91;70.65
71857;BME280;63344;46.980;28.882;2023-01-05T11:25:26;100092.97;;;6.96;70.51
71857;BME280;63344;46.980;28.882;2023-01-05T11:28:15;100099.88;;;7.01;70.96
71857;BME280;63344;46.980;28.882;2023-01-05T11:31:06;100096.34;;;7.02;70.68
71857;BME280;63344;46.980;28.882;2023-01-05T11:33:39;100088.38;;;7.03;70.95
71857;BME280;63344;46.980;28.882;2023-01-05T11:36:13;100067.13;;;7.06;70.93
71857;BME280;63344;46.980;28.882;2023-01-05T11:38:42;100056.53;;;7.08;70.75
71857;BME280;63344;46.980;28.882;2023-01-05T11:41:10;100064.41;;;7.09;71.03
71857;BME280;63344;46.980;28.882;2023-01-05T11:43:47;100069.69;;;7.09;71.03
71857;BME280;63344;46.980;28.882;2023-01-05T11:46:18;100063.50;;;7.09;70.80
71857;BME280;63344;46.980;28.882;2023-01-05T11:48:54;100052.91;;;7.10;71.10
71857;BME280;63344;46.980;28.882;2023-01-05T11:51:32;100059.88;;;7.13;71.28
71857;BME280;63344;46.980;28.882;2023-01-05T11:54:00;100051.06;;;7.12;71.51
71857;BME280;63344;46.980;28.882;2023-01-05T11:56:27;100046.56;;;7.16;71.12
71857;BME280;63344;46.980;28.882;2023-01-05T11:58:58;100032.38;;;7.18;71.17
71857;BME280;63344;46.980;28.882;2023-01-05T12:01:57;100034.97;;;7.20;71.00
71857;BME280;63344;46.980;28.882;2023-01-05T12:04:53;100043.75;;;7.21;70.91
71857;BME280;63344;46.980;28.882;2023-01-05T12:07:45;100031.47;;;7.20;71.17
71857;BME280;63344;46.980;28.882;2023-01-05T12:10:45;100026.19;;;7.20;71.23
71857;BME280;63344;46.980;28.882;2023-01-05T12:19:35;100033.19;;;7.21;71.64
71857;BME280;63344;46.980;28.882;2023-01-05T12:43:19;100016.19;;;7.29;70.82
71857;BME280;63344;46.980;28.882;2023-01-05T12:46:01;100003.03;;;7.28;70.65
71857;BME280;63344;46.980;28.882;2023-01-05T12:51:17;100021.25;;;7.35;70.34
71857;BME280;63344;46.980;28.882;2023-01-05T12:56:33;100009.91;;;7.32;70.78
71857;BME280;63344;46.980;28.882;2023-01-05T12:59:26;100016.59;;;7.42;70.50
71857;BME280;63344;46.980;28.882;2023-01-05T13:04:46;100023.41;;;7.49;70.59
71857;BME280;63344;46.980;28.882;2023-01-05T13:07:26;100008.41;;;7.50;69.86
71857;BME280;63344;46.980;28.882;2023-01-05T13:10:10;100003.88;;;7.53;70.20
71857;BME280;63344;46.980;28.882;2023-01-05T13:12:41;99993.16;;;7.56;69.62
71857;BME280;63344;46.980;28.882;2023-01-05T13:15:15;99981.88;;;7.53;69.54
71857;BME280;63344;46.980;28.882;2023-01-05T13:17:49;99986.22;;;7.54;69.58
71857;BME280;63344;46.980;28.882;2023-01-05T13:20:30;99990.38;;;7.61;69.59
71857;BME280;63344;46.980;28.882;2023-01-05T13:23:21;99992.09;;;7.62;69.10
71857;BME280;63344;46.980;28.882;2023-01-05T13:26:04;99998.19;;;7.64;69.27
71857;BME280;63344;46.980;28.882;2023-01-05T13:28:37;99982.44;;;7.61;69.07
71857;BME280;63344;46.980;28.882;2023-01-05T13:54:18;99983.31;;;7.85;67.73
71857;BME280;63344;46.980;28.882;2023-01-05T13:56:48;99984.16;;;7.86;68.29
71857;BME280;63344;46.980;28.882;2023-01-05T14:02:02;99974.28;;;7.91;67.06
71857;BME280;63344;46.980;28.882;2023-01-05T14:04:32;99990.78;;;7.97;66.90
71857;BME280;63344;46.980;28.882;2023-01-05T14:07:10;99976.81;;;7.94;66.93
71857;BME280;63344;46.980;28.882;2023-01-05T14:09:43;99987.19;;;7.98;67.03
71857;BME280;63344;46.980;28.882;2023-01-05T14:32:17;99977.41;;;8.01;67.10
71857;BME280;63344;46.980;28.882;2023-01-05T14:34:54;99979.78;;;8.08;67.36
71857;BME280;63344;46.980;28.882;2023-01-05T14:37:27;99991.09;;;8.12;67.35
71857;BME280;63344;46.980;28.882;2023-01-05T14:39:58;99983.63;;;8.23;66.81
71857;BME280;63344;46.980;28.882;2023-01-05T14:42:38;99984.53;;;8.22;67.33
71857;BME280;63344;46.980;28.882;2023-01-05T14:45:18;99985.22;;;8.27;67.17
71857;BME280;63344;46.980;28.882;2023-01-05T14:47:47;99989.50;;;8.30;66.88
71857;BME280;63344;46.980;28.882;2023-01-05T14:50:38;99995.84;;;8.26;67.29
71857;BME280;63344;46.980;28.882;2023-01-05T14:53:13;99995.91;;;8.24;66.61
71857;BME280;63344;46.980;28.882;2023-01-05T15:04:04;99988.38;;;8.59;65.54
71857;BME280;63344;46.980;28.882;2023-01-05T15:10:46;99969.66;;;8.64;65.64
71857;BME280;63344;46.980;28.882;2023-01-05T15:19:20;99983.50;;;8.70;64.89
71857;BME280;63344;46.980;28.882;2023-01-05T15:32:44;100015.53;;;8.41;66.04
71857;BME280;63344;46.980;28.882;2023-01-05T15:35:18;100015.22;;;8.26;66.74
71857;BME280;63344;46.980;28.882;2023-01-05T15:37:47;100018.25;;;8.17;67.43
71857;BME280;63344;46.980;28.882;2023-01-05T15:42:56;100025.81;;;8.03;67.77
71857;BME280;63344;46.980;28.882;2023-01-05T15:45:33;100011.13;;;7.95;68.05
71857;BME280;63344;46.980;28.882;2023-01-05T15:48:32;100029.41;;;8.02;68.40
71857;BME280;63344;46.980;28.882;2023-01-05T15:51:01;100017.22;;;7.97;68.58
71857;BME280;63344;46.980;28.882;2023-01-05T15:53:35;100020.63;;;8.01;68.82
71857;BME280;63344;46.980;28.882;2023-01-05T15:56:29;100011.97;;;7.96;69.05
71857;BME280;63344;46.980;28.882;2023-01-05T15:58:59;100011.97;;;7.96;69.11